createdAt,value
2023-04-07T00:01:42.577Z,99086.56
2023-04-07T00:11:44.088Z,99085.75
2023-04-07T00:21:45.749Z,99081.63
2023-04-07T00:31:47.318Z,99083.44
2023-04-07T00:41:48.972Z,99075.63
2023-04-07T00:51:50.712Z,99068.78
2023-04-07T01:02:33.832Z,99061.78
2023-04-07T01:12:41.538Z,99053.91
2023-04-07T01:22:45.333Z,99050.59
2023-04-07T01:32:47.974Z,99054.13
2023-04-07T01:42:49.457Z,99058.63
2023-04-07T01:52:50.857Z,99052.44
2023-04-07T02:02:55.706Z,99047.91
2023-04-07T02:12:57.286Z,99042.56
2023-04-07T02:22:58.708Z,99045.22
2023-04-07T02:33:00.210Z,99042.56
2023-04-07T02:43:01.801Z,99043.59
2023-04-07T02:53:03.210Z,99052.44
2023-04-07T03:03:04.690Z,99050.59
2023-04-07T03:13:08.368Z,99042.75
2023-04-07T03:23:10.011Z,99045.22
2023-04-07T03:33:11.454Z,99046.06
2023-04-07T03:43:15.612Z,99052.25
2023-04-07T03:53:17.176Z,99047.75
2023-04-07T04:03:18.710Z,99054.75
2023-04-07T04:13:20.758Z,99056.22
2023-04-07T04:23:22.201Z,99065.69
2023-04-07T04:33:24.133Z,99076.09
2023-04-07T04:43:25.673Z,99082.09
2023-04-07T04:53:27.672Z,99082.25
2023-04-07T05:03:29.416Z,99094.94
2023-04-07T05:13:31.363Z,99099.38
2023-04-07T05:23:32.804Z,99108.31
2023-04-07T05:33:34.683Z,99106.03
2023-04-07T05:43:36.087Z,99126.88
2023-04-07T05:53:37.502Z,99120.88
2023-04-07T06:03:40.841Z,99129.16
2023-04-07T06:13:42.312Z,99139.72
2023-04-07T06:23:43.963Z,99148.88
2023-04-07T06:33:45.565Z,99156.53
2023-04-07T06:43:47.881Z,99166.50
2023-04-07T06:53:49.809Z,99171.25
2023-04-07T07:03:52.236Z,99177.84
2023-04-07T07:13:53.892Z,99188.38
2023-04-07T07:23:55.308Z,99196.28
2023-04-07T07:33:56.870Z,99206.44
2023-04-07T07:43:58.432Z,99211.84
2023-04-07T07:54:00.429Z,99221.16
2023-04-07T08:04:02.312Z,99229.22
2023-04-07T08:14:03.855Z,99245.53
2023-04-07T08:24:05.764Z,99253.19
2023-04-07T08:34:07.389Z,99254.47
2023-04-07T08:44:11.643Z,99259.88
2023-04-07T08:54:14.381Z,99269.41
2023-04-07T09:04:16.157Z,99274.59
2023-04-07T09:14:18.796Z,99285.53
2023-04-07T09:24:21.632Z,99285.34
2023-04-07T09:34:31.961Z,99296.28
2023-04-07T09:44:39.484Z,99300.63
2023-04-07T09:54:41.787Z,99306.06
2023-04-07T10:04:43.913Z,99300.09
2023-04-07T10:14:47.173Z,99306.75
2023-04-07T10:25:00.287Z,99321.66
2023-04-07T10:35:01.777Z,99322.28
2023-04-07T10:45:04.252Z,99329.53
2023-04-07T10:55:33.677Z,99341.34
2023-04-07T11:05:38.589Z,99337.44
2023-04-07T11:15:41.023Z,99345.75
2023-04-07T11:25:43.839Z,99350.72
2023-04-07T11:35:55.857Z,99362.13
2023-04-07T11:46:11.399Z,99369.78
2023-04-07T11:56:16.811Z,99377.84
2023-04-07T12:06:28.972Z,99379.53
2023-04-07T12:16:30.627Z,99390.06
2023-04-07T12:26:32.047Z,99398.75
2023-04-07T12:36:33.671Z,99408.09
2023-04-07T12:46:35.089Z,99406.63
2023-04-07T12:56:36.677Z,99417.19
2023-04-07T13:06:38.252Z,99414.25
2023-04-07T13:16:40.290Z,99418.94
2023-04-07T13:26:42.010Z,99419.75
2023-04-07T13:36:43.444Z,99422.63
2023-04-07T13:46:44.971Z,99425.72
2023-04-07T13:56:48.875Z,99423.84
2023-04-07T14:06:50.282Z,99421.13
2023-04-07T14:16:52.430Z,99424.16
2023-04-07T14:26:54.613Z,99429.53
2023-04-07T14:36:56.983Z,99439.03
2023-04-07T14:46:58.427Z,99429.25
2023-04-07T14:56:59.879Z,99444.97
2023-04-07T15:07:01.461Z,99452.34
2023-04-07T15:17:03.083Z,99462.66
2023-04-07T15:27:04.679Z,99474.84
2023-04-07T15:37:06.135Z,99470.28
2023-04-07T15:47:07.778Z,99471.88
2023-04-07T15:57:09.546Z,99472.28
2023-04-07T16:07:10.946Z,99473.03
2023-04-07T16:17:12.519Z,99484.63
2023-04-07T16:27:13.928Z,99493.72
2023-04-07T16:37:15.437Z,99505.78
2023-04-07T16:47:16.828Z,99520.81
2023-04-07T16:57:18.235Z,99518.91
2023-04-07T17:07:19.686Z,99532.09
2023-04-07T17:17:21.196Z,99553.09
2023-04-07T17:27:22.695Z,99568.97
2023-04-07T17:37:24.109Z,99576.75
2023-04-07T17:47:25.697Z,99586.56
2023-04-07T17:57:27.308Z,99610.91
2023-04-07T18:07:29.396Z,99612.50
2023-04-07T18:17:31.408Z,99621.09
2023-04-07T18:27:33.026Z,99627.22
2023-04-07T18:37:34.491Z,99627.94
2023-04-07T18:47:36.069Z,99652.31
2023-04-07T18:57:38.391Z,99668.13
2023-04-07T19:07:40.202Z,99687.28
2023-04-07T19:17:41.824Z,99684.97
2023-04-07T19:27:43.404Z,99689.00
2023-04-07T19:37:47.446Z,99701.97
2023-04-07T19:47:49.801Z,99714.56
2023-04-07T19:57:51.410Z,99725.66
2023-04-07T20:07:52.972Z,99725.00
2023-04-07T20:17:54.465Z,99726.00
2023-04-07T20:27:56.073Z,99734.44
2023-04-07T20:37:57.498Z,99740.16
2023-04-07T20:47:58.957Z,99743.69
2023-04-07T20:58:00.417Z,99742.19
2023-04-07T21:08:02.026Z,99749.59
2023-04-07T21:18:04.028Z,99745.59
2023-04-07T21:28:05.707Z,99751.16
2023-04-07T21:38:07.263Z,99756.66
2023-04-07T21:48:08.802Z,99754.19
2023-04-07T21:58:10.444Z,99765.09
2023-04-07T22:08:12.896Z,99762.56
2023-04-07T22:18:14.585Z,99762.75
2023-04-07T22:28:16.148Z,99763.97
2023-04-07T22:38:17.760Z,99773.19
2023-04-07T22:48:19.229Z,99783.44
2023-04-07T22:58:20.657Z,99774.56
2023-04-07T23:08:22.363Z,99797.03
2023-04-07T23:18:23.785Z,99804.59
2023-04-07T23:28:25.435Z,99803.94
2023-04-07T23:38:26.849Z,99812.97
2023-04-07T23:48:28.443Z,99810.81
2023-04-07T23:58:30.011Z,99820.56
